sensor_id;sensor_type;location;lat;lon;timestamp;P1;durP1;ratioP1;P2;durP2;ratioP2
42602;SDS011;28233;55.748;48.752;2023-04-28T00:01:16;3.53;;;2.78;;
42602;SDS011;28233;55.748;48.752;2023-04-28T00:03:19;4.72;;;2.80;;
42602;SDS011;28233;55.748;48.752;2023-04-28T00:05:22;6.95;;;3.17;;
42602;SDS011;28233;55.748;48.752;2023-04-28T00:07:26;4.68;;;3.00;;
42602;SDS011;28233;55.748;48.752;2023-04-28T00:09:29;3.53;;;3.05;;
42602;SDS011;28233;55.748;48.752;2023-04-28T00:11:32;6.35;;;2.55;;
42602;SDS011;28233;55.748;48.752;2023-04-28T00:13:34;4.60;;;2.78;;
42602;SDS011;28233;55.748;48.752;2023-04-28T00:15:37;5.60;;;3.10;;
42602;SDS011;28233;55.748;48.752;2023-04-28T00:17:40;4.32;;;3.22;;
42602;SDS011;28233;55.748;48.752;2023-04-28T00:19:43;4.95;;;3.10;;
42602;SDS011;28233;55.748;48.752;2023-04-28T00:21:46;3.65;;;2.80;;
42602;SDS011;28233;55.748;48.752;2023-04-28T00:23:49;4.60;;;2.85;;
42602;SDS011;28233;55.748;48.752;2023-04-28T00:25:52;6.07;;;3.13;;
42602;SDS011;28233;55.748;48.752;2023-04-28T00:27:56;7.15;;;3.55;;
42602;SDS011;28233;55.748;48.752;2023-04-28T00:29:59;5.22;;;3.20;;
42602;SDS011;28233;55.748;48.752;2023-04-28T00:32:06;7.07;;;3.22;;
42602;SDS011;28233;55.748;48.752;2023-04-28T00:34:09;5.47;;;3.08;;
42602;SDS011;28233;55.748;48.752;2023-04-28T00:36:15;4.88;;;2.72;;
42602;SDS011;28233;55.748;48.752;2023-04-28T00:38:18;4.68;;;3.13;;
42602;SDS011;28233;55.748;48.752;2023-04-28T00:40:21;4.40;;;3.10;;
42602;SDS011;28233;55.748;48.752;2023-04-28T00:42:24;3.80;;;3.20;;
42602;SDS011;28233;55.748;48.752;2023-04-28T00:44:27;4.68;;;2.80;;
42602;SDS011;28233;55.748;48.752;2023-04-28T00:46:30;3.55;;;2.58;;
42602;SDS011;28233;55.748;48.752;2023-04-28T00:48:35;4.57;;;3.28;;
42602;SDS011;28233;55.748;48.752;2023-04-28T00:50:38;4.43;;;3.55;;
42602;SDS011;28233;55.748;48.752;2023-04-28T00:52:41;5.07;;;3.13;;
42602;SDS011;28233;55.748;48.752;2023-04-28T00:54:44;3.53;;;2.85;;
42602;SDS011;28233;55.748;48.752;2023-04-28T00:56:48;9.88;;;4.15;;
42602;SDS011;28233;55.748;48.752;2023-04-28T00:58:52;4.07;;;3.05;;
42602;SDS011;28233;55.748;48.752;2023-04-28T01:01:04;5.20;;;3.35;;
42602;SDS011;28233;55.748;48.752;2023-04-28T01:03:09;4.35;;;3.40;;
42602;SDS011;28233;55.748;48.752;2023-04-28T01:05:12;6.43;;;4.28;;
42602;SDS011;28233;55.748;48.752;2023-04-28T01:07:16;4.80;;;3.40;;
42602;SDS011;28233;55.748;48.752;2023-04-28T01:09:19;4.78;;;3.20;;
42602;SDS011;28233;55.748;48.752;2023-04-28T01:11:22;5.20;;;3.30;;
42602;SDS011;28233;55.748;48.752;2023-04-28T01:13:25;5.40;;;3.17;;
42602;SDS011;28233;55.748;48.752;2023-04-28T01:15:28;8.32;;;3.85;;
42602;SDS011;28233;55.748;48.752;2023-04-28T01:17:31;5.03;;;3.72;;
42602;SDS011;28233;55.748;48.752;2023-04-28T01:19:34;5.35;;;3.70;;
42602;SDS011;28233;55.748;48.752;2023-04-28T01:21:37;5.80;;;3.50;;
42602;SDS011;28233;55.748;48.752;2023-04-28T01:23:40;4.05;;;3.17;;
42602;SDS011;28233;55.748;48.752;2023-04-28T01:25:43;5.38;;;3.75;;
42602;SDS011;28233;55.748;48.752;2023-04-28T01:27:46;5.28;;;3.08;;
42602;SDS011;28233;55.748;48.752;2023-04-28T01:29:49;6.55;;;3.95;;
42602;SDS011;28233;55.748;48.752;2023-04-28T01:31:52;4.72;;;3.30;;
42602;SDS011;28233;55.748;48.752;2023-04-28T01:33:54;5.28;;;3.80;;
42602;SDS011;28233;55.748;48.752;2023-04-28T01:35:57;4.47;;;3.30;;
42602;SDS011;28233;55.748;48.752;2023-04-28T01:38:00;5.43;;;3.40;;
42602;SDS011;28233;55.748;48.752;2023-04-28T01:40:03;4.38;;;2.95;;
42602;SDS011;28233;55.748;48.752;2023-04-28T01:42:06;7.72;;;3.70;;
42602;SDS011;28233;55.748;48.752;2023-04-28T01:44:09;6.53;;;3.58;;
42602;SDS011;28233;55.748;48.752;2023-04-28T01:46:14;5.20;;;3.25;;
42602;SDS011;28233;55.748;48.752;2023-04-28T01:48:17;6.05;;;3.47;;
42602;SDS011;28233;55.748;48.752;2023-04-28T01:50:20;4.30;;;3.40;;
42602;SDS011;28233;55.748;48.752;2023-04-28T01:52:22;4.28;;;3.22;;
42602;SDS011;28233;55.748;48.752;2023-04-28T01:54:25;5.43;;;3.45;;
42602;SDS011;28233;55.748;48.752;2023-04-28T01:56:28;8.57;;;3.08;;
42602;SDS011;28233;55.748;48.752;2023-04-28T01:58:31;5.53;;;3.38;;
42602;SDS011;28233;55.748;48.752;2023-04-28T02:00:34;5.53;;;3.42;;
42602;SDS011;28233;55.748;48.752;2023-04-28T02:02:37;4.97;;;3.38;;
42602;SDS011;28233;55.748;48.752;2023-04-28T02:04:40;3.78;;;2.90;;
42602;SDS011;28233;55.748;48.752;2023-04-28T02:06:43;4.28;;;3.38;;
42602;SDS011;28233;55.748;48.752;2023-04-28T02:08:45;6.50;;;3.33;;
42602;SDS011;28233;55.748;48.752;2023-04-28T02:10:48;5.70;;;3.30;;
42602;SDS011;28233;55.748;48.752;2023-04-28T02:12:52;4.40;;;3.25;;
42602;SDS011;28233;55.748;48.752;2023-04-28T02:14:55;8.98;;;4.15;;
42602;SDS011;28233;55.748;48.752;2023-04-28T02:16:58;4.60;;;3.33;;
42602;SDS011;28233;55.748;48.752;2023-04-28T02:19:01;6.35;;;3.80;;
42602;SDS011;28233;55.748;48.752;2023-04-28T02:21:08;4.60;;;3.03;;
42602;SDS011;28233;55.748;48.752;2023-04-28T02:23:13;4.30;;;3.03;;
42602;SDS011;28233;55.748;48.752;2023-04-28T02:25:16;5.95;;;3.38;;
42602;SDS011;28233;55.748;48.752;2023-04-28T02:27:19;4.35;;;2.88;;
42602;SDS011;28233;55.748;48.752;2023-04-28T02:29:22;7.00;;;3.63;;
42602;SDS011;28233;55.748;48.752;2023-04-28T02:31:25;3.75;;;2.88;;
42602;SDS011;28233;55.748;48.752;2023-04-28T02:33:28;2.88;;;2.58;;
42602;SDS011;28233;55.748;48.752;2023-04-28T02:35:31;6.18;;;3.00;;
42602;SDS011;28233;55.748;48.752;2023-04-28T02:37:34;7.97;;;3.08;;
42602;SDS011;28233;55.748;48.752;2023-04-28T02:39:37;3.85;;;2.72;;
42602;SDS011;28233;55.748;48.752;2023-04-28T02:41:41;4.25;;;3.05;;
42602;SDS011;28233;55.748;48.752;2023-04-28T02:43:43;3.38;;;2.95;;
42602;SDS011;28233;55.748;48.752;2023-04-28T02:45:46;5.35;;;2.92;;
42602;SDS011;28233;55.748;48.752;2023-04-28T02:47:49;4.35;;;3.13;;
42602;SDS011;28233;55.748;48.752;2023-04-28T02:49:52;6.80;;;3.05;;
42602;SDS011;28233;55.748;48.752;2023-04-28T02:51:55;4.00;;;2.78;;
42602;SDS011;28233;55.748;48.752;2023-04-28T02:53:58;5.38;;;3.40;;
42602;SDS011;28233;55.748;48.752;2023-04-28T02:56:01;4.70;;;2.80;;
42602;SDS011;28233;55.748;48.752;2023-04-28T02:58:05;5.28;;;2.97;;
42602;SDS011;28233;55.748;48.752;2023-04-28T03:00:08;4.72;;;2.85;;
42602;SDS011;28233;55.748;48.752;2023-04-28T03:02:11;3.88;;;3.35;;
42602;SDS011;28233;55.748;48.752;2023-04-28T03:04:14;4.30;;;2.58;;
42602;SDS011;28233;55.748;48.752;2023-04-28T03:06:18;4.50;;;2.58;;
42602;SDS011;28233;55.748;48.752;2023-04-28T03:08:21;4.20;;;2.63;;
42602;SDS011;28233;55.748;48.752;2023-04-28T03:10:24;4.60;;;3.00;;
42602;SDS011;28233;55.748;48.752;2023-04-28T03:12:27;5.75;;;2.70;;
42602;SDS011;28233;55.748;48.752;2023-04-28T03:14:30;5.65;;;3.45;;
42602;SDS011;28233;55.748;48.752;2023-04-28T03:16:33;3.60;;;2.55;;
42602;SDS011;28233;55.748;48.752;2023-04-28T03:18:36;5.28;;;2.67;;
42602;SDS011;28233;55.748;48.752;2023-04-28T03:20:39;4.13;;;2.80;;
42602;SDS011;28233;55.748;48.752;2023-04-28T03:22:41;3.95;;;2.80;;
42602;SDS011;28233;55.748;48.752;2023-04-28T03:24:44;5.28;;;2.60;;
42602;SDS011;28233;55.748;48.752;2023-04-28T03:26:47;4.88;;;2.97;;
42602;SDS011;28233;55.748;48.752;2023-04-28T03:28:50;4.43;;;3.10;;
42602;SDS011;28233;55.748;48.752;2023-04-28T03:30:53;4.78;;;3.03;;
42602;SDS011;28233;55.748;48.752;2023-04-28T03:32:55;5.03;;;3.22;;
42602;SDS011;28233;55.748;48.752;2023-04-28T03:34:58;4.68;;;2.63;;
42602;SDS011;28233;55.748;48.752;2023-04-28T03:37:01;5.38;;;3.35;;
42602;SDS011;28233;55.748;48.752;2023-04-28T03:39:04;3.80;;;2.88;;
42602;SDS011;28233;55.748;48.752;2023-04-28T03:41:07;4.80;;;2.90;;
42602;SDS011;28233;55.748;48.752;2023-04-28T03:43:10;4.60;;;2.63;;
42602;SDS011;28233;55.748;48.752;2023-04-28T03:45:13;3.92;;;2.88;;
42602;SDS011;28233;55.748;48.752;2023-04-28T03:47:16;3.65;;;2.88;;
42602;SDS011;28233;55.748;48.752;2023-04-28T03:49:18;4.03;;;2.75;;
42602;SDS011;28233;55.748;48.752;2023-04-28T03:51:21;5.43;;;2.97;;
42602;SDS011;28233;55.748;48.752;2023-04-28T03:53:24;3.25;;;2.47;;
42602;SDS011;28233;55.748;48.752;2023-04-28T03:55:27;4.63;;;2.70;;
42602;SDS011;28233;55.748;48.752;2023-04-28T03:57:30;4.47;;;2.92;;
42602;SDS011;28233;55.748;48.752;2023-04-28T03:59:32;4.75;;;2.47;;
42602;SDS011;28233;55.748;48.752;2023-04-28T04:01:35;4.32;;;2.95;;
42602;SDS011;28233;55.748;48.752;2023-04-28T04:03:38;4.30;;;3.00;;
42602;SDS011;28233;55.748;48.752;2023-04-28T04:05:41;4.10;;;3.10;;
42602;SDS011;28233;55.748;48.752;2023-04-28T04:07:44;3.85;;;2.83;;
42602;SDS011;28233;55.748;48.752;2023-04-28T04:09:48;7.05;;;2.55;;
42602;SDS011;28233;55.748;48.752;2023-04-28T04:11:50;5.10;;;2.40;;
42602;SDS011;28233;55.748;48.752;2023-04-28T04:13:53;3.42;;;2.25;;
42602;SDS011;28233;55.748;48.752;2023-04-28T04:15:56;5.85;;;2.80;;
42602;SDS011;28233;55.748;48.752;2023-04-28T04:18:01;3.50;;;2.40;;
42602;SDS011;28233;55.748;48.752;2023-04-28T04:20:05;3.88;;;2.63;;
42602;SDS011;28233;55.748;48.752;2023-04-28T04:22:08;3.65;;;2.88;;
42602;SDS011;28233;55.748;48.752;2023-04-28T04:24:11;4.47;;;2.72;;
42602;SDS011;28233;55.748;48.752;2023-04-28T04:26:14;4.38;;;2.60;;
42602;SDS011;28233;55.748;48.752;2023-04-28T04:28:16;4.28;;;2.08;;
42602;SDS011;28233;55.748;48.752;2023-04-28T04:30:19;5.60;;;2.92;;
42602;SDS011;28233;55.748;48.752;2023-04-28T04:32:22;2.63;;;2.00;;
42602;SDS011;28233;55.748;48.752;2023-04-28T04:34:25;3.47;;;2.67;;
42602;SDS011;28233;55.748;48.752;2023-04-28T04:36:28;4.88;;;2.95;;
42602;SDS011;28233;55.748;48.752;2023-04-28T04:38:31;5.25;;;2.35;;
42602;SDS011;28233;55.748;48.752;2023-04-28T04:40:34;6.82;;;2.80;;
42602;SDS011;28233;55.748;48.752;2023-04-28T04:42:37;6.35;;;2.95;;
42602;SDS011;28233;55.748;48.752;2023-04-28T04:44:40;4.93;;;2.63;;
42602;SDS011;28233;55.748;48.752;2023-04-28T04:46:44;2.78;;;2.42;;
42602;SDS011;28233;55.748;48.752;2023-04-28T04:48:48;3.67;;;2.35;;
42602;SDS011;28233;55.748;48.752;2023-04-28T04:50:51;6.05;;;2.35;;
42602;SDS011;28233;55.748;48.752;2023-04-28T04:52:53;4.90;;;2.53;;
42602;SDS011;28233;55.748;48.752;2023-04-28T04:54:58;3.78;;;2.20;;
42602;SDS011;28233;55.748;48.752;2023-04-28T04:57:01;3.78;;;2.72;;
42602;SDS011;28233;55.748;48.752;2023-04-28T04:59:04;3.15;;;1.95;;
42602;SDS011;28233;55.748;48.752;2023-04-28T05:01:07;6.20;;;2.70;;
42602;SDS011;28233;55.748;48.752;2023-04-28T05:03:10;4.47;;;2.58;;
42602;SDS011;28233;55.748;48.752;2023-04-28T05:05:13;3.80;;;2.40;;
42602;SDS011;28233;55.748;48.752;2023-04-28T05:07:24;4.40;;;2.13;;
42602;SDS011;28233;55.748;48.752;2023-04-28T05:09:28;3.60;;;2.45;;
42602;SDS011;28233;55.748;48.752;2023-04-28T05:11:31;3.92;;;2.30;;
42602;SDS011;28233;55.748;48.752;2023-04-28T05:13:34;6.03;;;2.58;;
42602;SDS011;28233;55.748;48.752;2023-04-28T05:15:37;3.78;;;2.10;;
42602;SDS011;28233;55.748;48.752;2023-04-28T05:17:40;2.63;;;2.20;;
42602;SDS011;28233;55.748;48.752;2023-04-28T05:19:43;8.75;;;2.10;;
42602;SDS011;28233;55.748;48.752;2023-04-28T05:21:46;3.85;;;2.10;;
42602;SDS011;28233;55.748;48.752;2023-04-28T05:23:49;6.35;;;2.00;;
42602;SDS011;28233;55.748;48.752;2023-04-28T05:25:52;2.95;;;1.60;;
42602;SDS011;28233;55.748;48.752;2023-04-28T05:27:55;4.57;;;2.63;;
42602;SDS011;28233;55.748;48.752;2023-04-28T05:29:58;2.92;;;2.00;;
42602;SDS011;28233;55.748;48.752;2023-04-28T05:32:01;5.63;;;2.15;;
42602;SDS011;28233;55.748;48.752;2023-04-28T05:34:04;6.38;;;1.73;;
42602;SDS011;28233;55.748;48.752;2023-04-28T05:36:07;4.30;;;2.50;;
42602;SDS011;28233;55.748;48.752;2023-04-28T05:38:11;5.00;;;2.10;;
42602;SDS011;28233;55.748;48.752;2023-04-28T05:40:13;8.10;;;2.03;;
42602;SDS011;28233;55.748;48.752;2023-04-28T05:42:16;3.65;;;2.45;;
42602;SDS011;28233;55.748;48.752;2023-04-28T05:44:19;6.97;;;2.45;;
42602;SDS011;28233;55.748;48.752;2023-04-28T05:46:22;3.60;;;2.08;;
42602;SDS011;28233;55.748;48.752;2023-04-28T05:48:32;3.78;;;2.08;;
42602;SDS011;28233;55.748;48.752;2023-04-28T05:50:35;4.60;;;2.30;;
42602;SDS011;28233;55.748;48.752;2023-04-28T05:52:40;6.47;;;2.63;;
42602;SDS011;28233;55.748;48.752;2023-04-28T05:54:42;3.22;;;2.40;;
42602;SDS011;28233;55.748;48.752;2023-04-28T05:56:45;5.65;;;1.77;;
42602;SDS011;28233;55.748;48.752;2023-04-28T05:58:48;3.40;;;2.05;;
42602;SDS011;28233;55.748;48.752;2023-04-28T06:00:52;2.28;;;1.83;;
42602;SDS011;28233;55.748;48.752;2023-04-28T06:02:57;3.08;;;2.10;;
42602;SDS011;28233;55.748;48.752;2023-04-28T06:05:00;3.88;;;2.25;;
42602;SDS011;28233;55.748;48.752;2023-04-28T06:07:04;5.03;;;2.17;;
42602;SDS011;28233;55.748;48.752;2023-04-28T06:09:07;7.68;;;2.35;;
42602;SDS011;28233;55.748;48.752;2023-04-28T06:11:10;2.83;;;1.70;;
42602;SDS011;28233;55.748;48.752;2023-04-28T06:13:13;6.70;;;2.28;;
42602;SDS011;28233;55.748;48.752;2023-04-28T06:15:16;5.32;;;2.13;;
42602;SDS011;28233;55.748;48.752;2023-04-28T06:17:19;12.73;;;2.40;;
42602;SDS011;28233;55.748;48.752;2023-04-28T06:19:23;8.15;;;2.00;;
42602;SDS011;28233;55.748;48.752;2023-04-28T06:21:26;4.18;;;2.83;;
42602;SDS011;28233;55.748;48.752;2023-04-28T06:23:29;5.32;;;2.30;;
42602;SDS011;28233;55.748;48.752;2023-04-28T06:25:32;5.97;;;2.78;;
42602;SDS011;28233;55.748;48.752;2023-04-28T06:27:35;3.50;;;2.10;;
42602;SDS011;28233;55.748;48.752;2023-04-28T06:29:38;6.20;;;1.63;;
42602;SDS011;28233;55.748;48.752;2023-04-28T06:31:41;2.35;;;1.95;;
42602;SDS011;28233;55.748;48.752;2023-04-28T06:33:44;2.72;;;2.10;;
42602;SDS011;28233;55.748;48.752;2023-04-28T06:35:47;2.83;;;2.05;;
42602;SDS011;28233;55.748;48.752;2023-04-28T06:37:50;4.05;;;2.35;;
42602;SDS011;28233;55.748;48.752;2023-04-28T06:39:53;2.90;;;2.47;;
42602;SDS011;28233;55.748;48.752;2023-04-28T06:41:55;3.08;;;2.15;;
42602;SDS011;28233;55.748;48.752;2023-04-28T06:43:59;4.00;;;2.33;;
42602;SDS011;28233;55.748;48.752;2023-04-28T06:46:02;6.53;;;2.13;;
42602;SDS011;28233;55.748;48.752;2023-04-28T06:48:05;3.88;;;2.42;;
42602;SDS011;28233;55.748;48.752;2023-04-28T06:50:09;8.30;;;2.30;;
42602;SDS011;28233;55.748;48.752;2023-04-28T06:52:12;4.65;;;2.80;;
42602;SDS011;28233;55.748;48.752;2023-04-28T06:54:15;3.60;;;2.58;;
42602;SDS011;28233;55.748;48.752;2023-04-28T06:56:19;9.18;;;2.53;;
42602;SDS011;28233;55.748;48.752;2023-04-28T06:58:22;5.03;;;2.28;;
42602;SDS011;28233;55.748;48.752;2023-04-28T07:00:25;6.95;;;2.97;;
42602;SDS011;28233;55.748;48.752;2023-04-28T07:02:28;10.45;;;2.75;;
42602;SDS011;28233;55.748;48.752;2023-04-28T07:04:31;4.32;;;2.40;;
42602;SDS011;28233;55.748;48.752;2023-04-28T07:06:34;3.15;;;2.63;;
42602;SDS011;28233;55.748;48.752;2023-04-28T07:08:37;7.18;;;2.67;;
42602;SDS011;28233;55.748;48.752;2023-04-28T07:10:39;3.30;;;2.42;;
42602;SDS011;28233;55.748;48.752;2023-04-28T07:12:43;7.18;;;2.38;;
42602;SDS011;28233;55.748;48.752;2023-04-28T07:14:45;7.40;;;3.25;;
42602;SDS011;28233;55.748;48.752;2023-04-28T07:16:48;6.70;;;2.60;;
42602;SDS011;28233;55.748;48.752;2023-04-28T07:18:51;3.08;;;2.72;;
42602;SDS011;28233;55.748;48.752;2023-04-28T07:20:54;4.88;;;2.50;;
42602;SDS011;28233;55.748;48.752;2023-04-28T07:22:57;4.95;;;2.75;;
42602;SDS011;28233;55.748;48.752;2023-04-28T07:25:00;5.70;;;2.90;;
42602;SDS011;28233;55.748;48.752;2023-04-28T07:27:04;6.38;;;2.65;;
42602;SDS011;28233;55.748;48.752;2023-04-28T07:29:07;4.47;;;2.78;;
42602;SDS011;28233;55.748;48.752;2023-04-28T07:31:14;6.00;;;2.53;;
42602;SDS011;28233;55.748;48.752;2023-04-28T07:33:17;4.72;;;2.95;;
42602;SDS011;28233;55.748;48.752;2023-04-28T07:35:20;7.22;;;2.85;;
42602;SDS011;28233;55.748;48.752;2023-04-28T07:37:36;3.97;;;2.78;;
42602;SDS011;28233;55.748;48.752;2023-04-28T07:39:39;5.47;;;2.58;;
42602;SDS011;28233;55.748;48.752;2023-04-28T07:41:42;3.33;;;2.60;;
42602;SDS011;28233;55.748;48.752;2023-04-28T07:43:45;5.32;;;2.75;;
42602;SDS011;28233;55.748;48.752;2023-04-28T07:45:48;3.75;;;2.70;;
42602;SDS011;28233;55.748;48.752;2023-04-28T07:47:52;3.97;;;2.50;;
42602;SDS011;28233;55.748;48.752;2023-04-28T07:49:55;7.43;;;2.60;;
42602;SDS011;28233;55.748;48.752;2023-04-28T07:51:58;3.55;;;2.40;;
42602;SDS011;28233;55.748;48.752;2023-04-28T07:54:01;4.13;;;2.78;;
42602;SDS011;28233;55.748;48.752;2023-04-28T07:56:04;5.70;;;2.53;;
42602;SDS011;28233;55.748;48.752;2023-04-28T07:58:07;5.00;;;2.80;;
42602;SDS011;28233;55.748;48.752;2023-04-28T08:00:10;6.88;;;2.72;;
42602;SDS011;28233;55.748;48.752;2023-04-28T08:02:13;5.60;;;2.42;;
42602;SDS011;28233;55.748;48.752;2023-04-28T08:04:16;4.25;;;2.28;;
42602;SDS011;28233;55.748;48.752;2023-04-28T08:06:20;4.63;;;2.65;;
42602;SDS011;28233;55.748;48.752;2023-04-28T08:08:23;7.07;;;2.95;;
42602;SDS011;28233;55.748;48.752;2023-04-28T08:10:26;5.80;;;2.53;;
42602;SDS011;28233;55.748;48.752;2023-04-28T08:12:30;4.88;;;2.67;;
42602;SDS011;28233;55.748;48.752;2023-04-28T08:14:33;4.03;;;2.60;;
42602;SDS011;28233;55.748;48.752;2023-04-28T08:16:36;5.40;;;2.25;;
42602;SDS011;28233;55.748;48.752;2023-04-28T08:18:42;3.47;;;2.53;;
42602;SDS011;28233;55.748;48.752;2023-04-28T08:20:45;4.53;;;2.30;;
42602;SDS011;28233;55.748;48.752;2023-04-28T08:22:48;6.10;;;3.55;;
42602;SDS011;28233;55.748;48.752;2023-04-28T08:24:51;4.72;;;2.78;;
42602;SDS011;28233;55.748;48.752;2023-04-28T08:26:53;4.85;;;2.53;;
42602;SDS011;28233;55.748;48.752;2023-04-28T08:28:56;4.85;;;3.28;;
42602;SDS011;28233;55.748;48.752;2023-04-28T08:30:59;2.83;;;2.53;;
42602;SDS011;28233;55.748;48.752;2023-04-28T08:33:02;5.95;;;2.30;;
42602;SDS011;28233;55.748;48.752;2023-04-28T08:35:06;4.10;;;2.72;;
42602;SDS011;28233;55.748;48.752;2023-04-28T08:37:09;3.55;;;2.83;;
42602;SDS011;28233;55.748;48.752;2023-04-28T08:39:12;5.00;;;2.38;;
42602;SDS011;28233;55.748;48.752;2023-04-28T08:41:15;2.42;;;1.88;;
42602;SDS011;28233;55.748;48.752;2023-04-28T08:43:18;5.63;;;2.47;;
42602;SDS011;28233;55.748;48.752;2023-04-28T08:45:23;2.35;;;2.10;;
42602;SDS011;28233;55.748;48.752;2023-04-28T08:47:35;3.83;;;2.55;;
42602;SDS011;28233;55.748;48.752;2023-04-28T08:49:58;6.07;;;2.45;;
42602;SDS011;28233;55.748;48.752;2023-04-28T08:52:10;4.38;;;2.10;;
42602;SDS011;28233;55.748;48.752;2023-04-28T08:54:14;3.75;;;2.55;;
42602;SDS011;28233;55.748;48.752;2023-04-28T08:56:29;3.53;;;2.45;;
42602;SDS011;28233;55.748;48.752;2023-04-28T08:58:35;6.05;;;2.55;;
42602;SDS011;28233;55.748;48.752;2023-04-28T09:00:40;4.63;;;2.47;;
42602;SDS011;28233;55.748;48.752;2023-04-28T09:02:43;6.55;;;2.65;;
42602;SDS011;28233;55.748;48.752;2023-04-28T09:04:46;7.78;;;3.10;;
42602;SDS011;28233;55.748;48.752;2023-04-28T09:06:50;3.38;;;2.10;;
42602;SDS011;28233;55.748;48.752;2023-04-28T09:08:52;6.35;;;2.90;;
42602;SDS011;28233;55.748;48.752;2023-04-28T09:11:17;3.20;;;2.45;;
42602;SDS011;28233;55.748;48.752;2023-04-28T09:13:24;4.32;;;2.75;;
42602;SDS011;28233;55.748;48.752;2023-04-28T09:17:50;3.65;;;2.38;;
42602;SDS011;28233;55.748;48.752;2023-04-28T09:19:53;3.38;;;2.40;;
42602;SDS011;28233;55.748;48.752;2023-04-28T09:21:57;10.68;;;3.00;;
42602;SDS011;28233;55.748;48.752;2023-04-28T09:24:04;6.93;;;2.75;;
42602;SDS011;28233;55.748;48.752;2023-04-28T09:26:08;2.63;;;2.20;;
42602;SDS011;28233;55.748;48.752;2023-04-28T09:28:20;3.33;;;2.78;;
42602;SDS011;28233;55.748;48.752;2023-04-28T09:30:57;4.95;;;2.60;;
42602;SDS011;28233;55.748;48.752;2023-04-28T09:33:04;4.70;;;1.85;;
42602;SDS011;28233;55.748;48.752;2023-04-28T09:35:11;3.65;;;2.33;;
42602;SDS011;28233;55.748;48.752;2023-04-28T09:37:17;4.32;;;2.38;;
42602;SDS011;28233;55.748;48.752;2023-04-28T09:39:29;2.50;;;1.98;;
42602;SDS011;28233;55.748;48.752;2023-04-28T09:41:38;4.70;;;2.40;;
42602;SDS011;28233;55.748;48.752;2023-04-28T09:43:42;8.05;;;2.42;;
42602;SDS011;28233;55.748;48.752;2023-04-28T09:45:45;4.82;;;1.90;;
42602;SDS011;28233;55.748;48.752;2023-04-28T09:47:47;2.75;;;2.15;;
42602;SDS011;28233;55.748;48.752;2023-04-28T09:49:57;3.92;;;2.25;;
42602;SDS011;28233;55.748;48.752;2023-04-28T09:52:11;6.88;;;2.83;;
42602;SDS011;28233;55.748;48.752;2023-04-28T09:54:14;2.95;;;2.00;;
42602;SDS011;28233;55.748;48.752;2023-04-28T09:56:18;4.03;;;2.13;;
42602;SDS011;28233;55.748;48.752;2023-04-28T09:58:24;2.42;;;2.22;;
42602;SDS011;28233;55.748;48.752;2023-04-28T10:00:28;5.15;;;2.80;;
42602;SDS011;28233;55.748;48.752;2023-04-28T10:02:33;3.58;;;2.40;;
42602;SDS011;28233;55.748;48.752;2023-04-28T10:04:41;3.20;;;1.92;;
42602;SDS011;28233;55.748;48.752;2023-04-28T10:06:46;4.80;;;2.50;;
42602;SDS011;28233;55.748;48.752;2023-04-28T10:08:50;7.18;;;2.63;;
42602;SDS011;28233;55.748;48.752;2023-04-28T10:10:53;6.25;;;2.60;;
42602;SDS011;28233;55.748;48.752;2023-04-28T10:12:58;3.58;;;2.10;;
42602;SDS011;28233;55.748;48.752;2023-04-28T10:15:03;2.65;;;1.92;;
42602;SDS011;28233;55.748;48.752;2023-04-28T10:17:07;2.70;;;2.05;;
42602;SDS011;28233;55.748;48.752;2023-04-28T10:19:11;3.53;;;2.05;;
42602;SDS011;28233;55.748;48.752;2023-04-28T10:21:17;4.25;;;2.40;;
42602;SDS011;28233;55.748;48.752;2023-04-28T10:26:10;3.00;;;2.22;;
42602;SDS011;28233;55.748;48.752;2023-04-28T10:28:15;4.85;;;2.53;;
42602;SDS011;28233;55.748;48.752;2023-04-28T10:30:21;4.65;;;2.03;;
42602;SDS011;28233;55.748;48.752;2023-04-28T10:32:30;2.20;;;2.00;;
42602;SDS011;28233;55.748;48.752;2023-04-28T10:34:34;12.07;;;2.33;;
42602;SDS011;28233;55.748;48.752;2023-04-28T10:36:47;5.72;;;2.60;;
42602;SDS011;28233;55.748;48.752;2023-04-28T10:39:30;4.93;;;1.92;;
42602;SDS011;28233;55.748;48.752;2023-04-28T10:41:31;5.32;;;2.40;;
42602;SDS011;28233;55.748;48.752;2023-04-28T10:43:35;3.60;;;1.98;;
42602;SDS011;28233;55.748;48.752;2023-04-28T10:47:59;8.40;;;2.35;;
42602;SDS011;28233;55.748;48.752;2023-04-28T10:50:06;6.45;;;2.45;;
42602;SDS011;28233;55.748;48.752;2023-04-28T10:54:34;4.13;;;2.20;;
42602;SDS011;28233;55.748;48.752;2023-04-28T10:56:37;3.67;;;2.03;;
42602;SDS011;28233;55.748;48.752;2023-04-28T10:58:43;5.57;;;2.25;;
42602;SDS011;28233;55.748;48.752;2023-04-28T11:00:47;2.80;;;2.03;;
42602;SDS011;28233;55.748;48.752;2023-04-28T11:02:52;3.72;;;2.33;;
42602;SDS011;28233;55.748;48.752;2023-04-28T11:05:11;8.07;;;2.67;;
42602;SDS011;28233;55.748;48.752;2023-04-28T11:07:15;3.67;;;2.25;;
42602;SDS011;28233;55.748;48.752;2023-04-28T11:11:21;3.15;;;2.17;;
42602;SDS011;28233;55.748;48.752;2023-04-28T11:13:27;2.88;;;1.80;;
42602;SDS011;28233;55.748;48.752;2023-04-28T11:15:35;3.63;;;2.60;;
42602;SDS011;28233;55.748;48.752;2023-04-28T11:17:39;5.45;;;2.33;;
42602;SDS011;28233;55.748;48.752;2023-04-28T11:19:43;3.90;;;2.58;;
42602;SDS011;28233;55.748;48.752;2023-04-28T11:21:50;2.22;;;2.00;;
42602;SDS011;28233;55.748;48.752;2023-04-28T11:23:53;8.40;;;2.65;;
42602;SDS011;28233;55.748;48.752;2023-04-28T11:25:56;5.78;;;2.22;;
42602;SDS011;28233;55.748;48.752;2023-04-28T11:28:03;3.13;;;2.30;;
42602;SDS011;28233;55.748;48.752;2023-04-28T11:30:20;3.42;;;2.30;;
42602;SDS011;28233;55.748;48.752;2023-04-28T11:32:27;2.67;;;2.38;;
42602;SDS011;28233;55.748;48.752;2023-04-28T11:34:32;3.58;;;2.20;;
42602;SDS011;28233;55.748;48.752;2023-04-28T11:36:36;2.42;;;2.17;;
42602;SDS011;28233;55.748;48.752;2023-04-28T11:38:44;3.88;;;2.22;;
42602;SDS011;28233;55.748;48.752;2023-04-28T11:40:57;3.42;;;1.98;;
42602;SDS011;28233;55.748;48.752;2023-04-28T11:43:00;3.03;;;1.80;;
42602;SDS011;28233;55.748;48.752;2023-04-28T11:45:05;8.88;;;3.00;;
42602;SDS011;28233;55.748;48.752;2023-04-28T11:47:09;4.00;;;2.08;;
42602;SDS011;28233;55.748;48.752;2023-04-28T11:49:12;3.08;;;2.05;;
42602;SDS011;28233;55.748;48.752;2023-04-28T11:51:29;6.93;;;2.30;;
42602;SDS011;28233;55.748;48.752;2023-04-28T11:53:39;4.32;;;2.33;;
42602;SDS011;28233;55.748;48.752;2023-04-28T11:55:46;5.28;;;2.25;;
42602;SDS011;28233;55.748;48.752;2023-04-28T11:57:48;5.40;;;2.50;;
42602;SDS011;28233;55.748;48.752;2023-04-28T12:00:12;2.53;;;2.17;;
42602;SDS011;28233;55.748;48.752;2023-04-28T12:02:23;17.05;;;2.55;;
42602;SDS011;28233;55.748;48.752;2023-04-28T12:04:41;4.68;;;2.38;;
42602;SDS011;28233;55.748;48.752;2023-04-28T12:06:45;4.32;;;2.65;;
42602;SDS011;28233;55.748;48.752;2023-04-28T12:08:48;6.75;;;2.42;;
42602;SDS011;28233;55.748;48.752;2023-04-28T12:11:11;5.22;;;2.15;;
42602;SDS011;28233;55.748;48.752;2023-04-28T12:13:15;2.83;;;2.35;;
42602;SDS011;28233;55.748;48.752;2023-04-28T12:15:18;2.90;;;2.17;;
42602;SDS011;28233;55.748;48.752;2023-04-28T12:17:26;5.05;;;2.25;;
42602;SDS011;28233;55.748;48.752;2023-04-28T12:19:41;2.95;;;2.08;;
42602;SDS011;28233;55.748;48.752;2023-04-28T12:24:18;5.75;;;2.78;;
42602;SDS011;28233;55.748;48.752;2023-04-28T12:26:25;6.22;;;2.17;;
42602;SDS011;28233;55.748;48.752;2023-04-28T12:30:40;4.25;;;2.60;;
42602;SDS011;28233;55.748;48.752;2023-04-28T12:32:45;4.22;;;2.50;;
42602;SDS011;28233;55.748;48.752;2023-04-28T12:34:49;5.93;;;2.25;;